ADDS METAR Data INFO
IDs: Format: Raw Decoded Include TAF

Data at: 1745 UTC 21 Oct 2017

KBHC 211735Z AUTO 05007KT 10SM BKN045 BKN050 27/15 A3023 RMK AO2
KBHC 211715Z AUTO 07007KT 10SM BKN048 27/15 A3024 RMK AO2
KBHC 211655Z AUTO 08005KT 10SM SCT050 27/16 A3025 RMK AO2
KBHC 211635Z AUTO 08008KT 10SM CLR 26/16 A3025 RMK AO2
KBHC 211615Z AUTO 05005KT 10SM CLR 26/16 A3025 RMK AO2
KBHC 211555Z AUTO 10005KT 10SM CLR 25/17 A3026 RMK AO2
KBHC 211535Z AUTO 08006KT 10SM CLR 25/17 A3026 RMK AO2
KBHC 211515Z AUTO 06006KT 10SM CLR 24/17 A3027 RMK AO2
KBHC 211455Z AUTO 07006KT 10SM CLR 23/17 A3027 RMK AO2
KBHC 211435Z AUTO 08005KT 10SM CLR 22/17 A3026 RMK AO2
KBHC 211415Z AUTO 06006KT 10SM CLR 21/18 A3026 RMK AO2
KBHC 211355Z AUTO 07007KT 10SM CLR 20/18 A3025 RMK AO2
KBHC 211335Z AUTO 06008KT 10SM CLR 18/18 A3025 RMK AO2
KBHC 211315Z AUTO 06007KT 10SM CLR 17/17 A3025 RMK AO2
KBHC 211255Z AUTO 06005KT 10SM CLR 17/17 A3025 RMK AO2
KBHC 211235Z AUTO 06004KT 10SM CLR 16/16 A3024 RMK AO2
KBHC 211215Z AUTO 07005KT 10SM CLR 16/16 A3023 RMK AO2
KBHC 211155Z AUTO 06004KT 10SM CLR 15/15 A3022 RMK AO2
KBHC 211135Z AUTO 06005KT 10SM CLR 15/15 A3022 RMK AO2
KBHC 211115Z AUTO 06004KT 10SM CLR 15/15 A3022 RMK AO2
KBHC 211055Z AUTO 06004KT 10SM CLR 15/15 A3022 RMK AO2
KBHC 211035Z AUTO 07005KT 10SM SCT048 15/15 A3021 RMK AO2
KBHC 211015Z AUTO 05003KT 10SM SCT047 15/15 A3021 RMK AO2
KBHC 210955Z AUTO 05003KT 10SM SCT049 14/14 A3020 RMK AO2
KBHC 210935Z AUTO 00000KT 10SM CLR 14/14 A3021 RMK AO2
KBHC 210915Z AUTO 00000KT 10SM CLR 14/13 A3020 RMK AO2
KBHC 210855Z AUTO 00000KT 10SM CLR 14/14 A3020 RMK AO2
KBHC 210835Z AUTO 00000KT 10SM CLR 13/13 A3019 RMK AO2
KBHC 210815Z AUTO 00000KT 10SM CLR 13/13 A3019 RMK AO2
KBHC 210755Z AUTO 00000KT 5SM BR CLR 14/13 A3019 RMK AO2
KBHC 210735Z AUTO 00000KT 10SM CLR 15/15 A3019 RMK AO2
KBHC 210715Z AUTO 00000KT 10SM CLR 15/15 A3019 RMK AO2
KBHC 210655Z AUTO 06003KT 10SM CLR 15/15 A3020 RMK AO2
KBHC 210635Z AUTO 08003KT 10SM CLR 14/14 A3020 RMK AO2
KBHC 210615Z AUTO 06003KT 10SM CLR 14/13 A3020 RMK AO2
KBHC 210555Z AUTO 00000KT 4SM BR CLR 15/14 A3020 RMK AO2
KBHC 210535Z AUTO 00000KT 1 1/4SM BR VV007 15/15 A3020 RMK AO2
KBHC 210515Z AUTO 00000KT 7SM CLR 14/14 A3021 RMK AO2
KBHC 210455Z AUTO 00000KT 10SM CLR 16/16 A3021 RMK AO2
KBHC 210435Z AUTO 00000KT 10SM CLR 16/16 A3021 RMK AO2
KBHC 210415Z AUTO 00000KT 10SM CLR 16/16 A3021 RMK AO2
KBHC 210355Z AUTO 09003KT 10SM CLR 16/16 A3020 RMK AO2
KBHC 210335Z AUTO 00000KT 10SM CLR 17/17 A3020 RMK AO2
KBHC 210315Z AUTO 00000KT 10SM CLR 17/17 A3020 RMK AO2
KBHC 210255Z AUTO 00000KT 10SM CLR 17/17 A3020 RMK AO2
KBHC 210235Z AUTO 10003KT 10SM CLR 18/18 A3019 RMK AO2
KBHC 210215Z AUTO 00000KT 10SM CLR 18/18 A3019 RMK AO2
KBHC 210155Z AUTO 12003KT 10SM CLR 18/18 A3019 RMK AO2
KBHC 210135Z AUTO 00000KT 10SM CLR 19/19 A3018 RMK AO2
KBHC 210115Z AUTO 00000KT 10SM CLR 20/18 A3018 RMK AO2
KBHC 210055Z AUTO 10003KT 10SM CLR 20/17 A3018 RMK AO2
KBHC 210035Z AUTO 11003KT 10SM CLR 20/17 A3018 RMK AO2
KBHC 210015Z AUTO 12004KT 10SM CLR 21/17 A3018 RMK AO2
KBHC 202355Z AUTO 11004KT 10SM CLR 21/16 A3017 RMK AO2
KBHC 202335Z AUTO 09003KT 10SM CLR 21/15 A3017 RMK AO2
KBHC 202315Z AUTO 00000KT 10SM CLR 21/15 A3016 RMK AO2
KBHC 202255Z AUTO 00000KT 10SM CLR 22/15 A3016 RMK AO2
KBHC 202235Z AUTO 08003KT 10SM CLR 24/14 A3015 RMK AO2
KBHC 202215Z AUTO 09004KT 10SM CLR 25/13 A3015 RMK AO2
KBHC 202155Z AUTO 11003KT 10SM CLR 26/13 A3016 RMK AO2
KBHC 202135Z AUTO 10005KT 10SM CLR 26/12 A3015 RMK AO2
KBHC 202115Z AUTO 12005KT 10SM CLR 26/13 A3015 RMK AO2
KBHC 202055Z AUTO 00000KT 10SM CLR 27/12 A3016 RMK AO2
KBHC 202035Z AUTO 10003KT 10SM CLR 27/12 A3017 RMK AO2
KBHC 202015Z AUTO 16003KT 10SM CLR 27/12 A3017 RMK AO2 LTG DSNT W
KBHC 201955Z AUTO 10003KT 10SM CLR 27/12 A3017 RMK AO2
KBHC 201935Z AUTO 11004KT 10SM CLR 26/12 A3017 RMK AO2
KBHC 201915Z AUTO 11003KT 10SM CLR 27/11 A3017 RMK AO2
KBHC 201855Z AUTO 07006KT 10SM CLR 26/13 A3017 RMK AO2
KBHC 201835Z AUTO 14005KT 10SM CLR 26/13 A3018 RMK AO2
KBHC 201815Z AUTO 04004KT 10SM CLR 26/15 A3019 RMK AO2
KBHC 201755Z AUTO 09005KT 10SM CLR 26/15 A3020 RMK AO2
KBHC 201735Z AUTO 04003KT 10SM CLR 25/15 A3021 RMK AO2
KBHC 201715Z AUTO 06006KT 10SM CLR 25/15 A3022 RMK AO2
KBHC 201655Z AUTO 09005KT 10SM CLR 24/15 A3023 RMK AO2
KBHC 201635Z AUTO 05004KT 10SM CLR 23/14 A3024 RMK AO2
KBHC 201615Z AUTO 00000KT 10SM CLR 23/13 A3025 RMK AO2
KBHC 201555Z AUTO 05005KT 10SM CLR 23/13 A3025 RMK AO2
KBHC 201535Z AUTO 07009KT 10SM CLR 22/13 A3025 RMK AO2
KBHC 201515Z AUTO 03006KT 10SM CLR 22/13 A3026 RMK AO2
KBHC 201455Z AUTO 04006KT 10SM CLR 21/13 A3027 RMK AO2
KBHC 201435Z AUTO 03006KT 10SM CLR 20/13 A3027 RMK AO2
KBHC 201415Z AUTO 05005KT 10SM CLR 19/14 A3026 RMK AO2
KBHC 201355Z AUTO 04005KT 10SM CLR 17/14 A3026 RMK AO2
KBHC 201335Z AUTO 04005KT 10SM CLR 16/15 A3026 RMK AO2
KBHC 201315Z AUTO 03004KT 10SM CLR 15/15 A3026 RMK AO2
KBHC 201255Z AUTO 03003KT 10SM CLR 13/13 A3025 RMK AO2
KBHC 201235Z AUTO 04003KT 10SM CLR 12/12 A3025 RMK AO2
KBHC 201215Z AUTO 00000KT 5SM BR CLR 10/10 A3024 RMK AO2
KBHC 201155Z AUTO 01003KT 1SM BR VV007 10/10 A3023 RMK AO2
KBHC 201135Z AUTO 00000KT 10SM CLR 10/10 A3022 RMK AO2
KBHC 201115Z AUTO 00000KT 5SM BR CLR 10/10 A3022 RMK AO2
KBHC 201055Z AUTO 00000KT 10SM CLR 10/10 A3022 RMK AO2
KBHC 201035Z AUTO 00000KT 5SM BR CLR 10/10 A3022 RMK AO2
KBHC 201015Z AUTO 04003KT 3/4SM BR BKN004 10/10 A3022 RMK AO2
KBHC 200955Z AUTO 00000KT 10SM CLR 10/10 A3021 RMK AO2
KBHC 200935Z AUTO 00000KT 10SM CLR 11/10 A3021 RMK AO2
KBHC 200915Z AUTO 00000KT 10SM CLR 11/11 A3020 RMK AO2
KBHC 200855Z AUTO 00000KT 10SM CLR 11/11 A3020 RMK AO2
KBHC 200835Z AUTO 00000KT 7SM CLR 11/11 A3020 RMK AO2
KBHC 200815Z AUTO 00000KT 4SM BR CLR 11/11 A3020 RMK AO2
KBHC 200755Z AUTO 00000KT 10SM CLR 12/12 A3020 RMK AO2
KBHC 200735Z AUTO 00000KT 7SM CLR 11/11 A3020 RMK AO2
KBHC 200715Z AUTO 00000KT 10SM CLR 12/12 A3020 RMK AO2
KBHC 200655Z AUTO 00000KT 10SM CLR 12/12 A3021 RMK AO2
KBHC 200635Z AUTO 00000KT 10SM CLR 12/12 A3021 RMK AO2
KBHC 200615Z AUTO 00000KT 10SM CLR 12/12 A3021 RMK AO2
KBHC 200555Z AUTO 04003KT 10SM CLR 12/12 A3021 RMK AO2